Time;durP1;ratioP1;P1;durP2;ratioP2;P2;SDS_P1;SDS_P2;PMS_P1;PMS_P2;Temp;Humidity;BMP_temperature;BMP_pressure;BME280_temperature;BME280_humidity;BME280_pressure;Samples;Min_cycle;Max_cycle;Signal;HPM_P1;HPM_P2
2022/02/09 00:00:36;;;;;;;11.40;4.12;;;;;;;0.96;100.00;100629.84;1691702;84;21117;-84
2022/02/09 00:03:12;;;;;;;9.80;3.47;;;;;;;0.94;100.00;100627.88;1695896;84;21454;-84
2022/02/09 00:08:03;;;;;;;12.33;3.55;;;;;;;0.92;100.00;100629.93;1642262;87;21087;-84
2022/02/09 00:10:32;;;;;;;7.58;3.30;;;;;;;0.89;100.00;100627.97;1642343;86;21030;-84
2022/02/09 00:15:56;;;;;;;8.50;2.98;;;;;;;0.88;100.00;100631.65;1642503;87;21582;-84
2022/02/09 00:23:43;;;;;;;11.97;3.58;;;;;;;0.89;100.00;100635.11;1563409;91;21041;-84
2022/02/09 01:38:18;;;;;;;8.10;3.12;;;;;;;0.63;100.00;100633.92;1635019;87;21534;-86
2022/02/09 01:55:24;;;;;;;6.92;3.15;;;;;;;0.63;100.00;100647.69;1661676;86;21087;-86
2022/02/09 01:56:32;;;;;;;13.25;3.47;;;;;;;0.64;100.00;100641.36;1661999;86;21106;-86
2022/02/09 01:58:58;;;;;;;8.10;3.33;;;;;;;0.62;100.00;100645.55;1662538;86;21090;-86
2022/02/09 02:01:26;;;;;;;7.22;3.47;;;;;;;0.62;100.00;100645.55;1661025;86;22289;-86
2022/02/09 02:03:53;;;;;;;9.38;3.70;;;;;;;0.64;100.00;100647.48;1658558;86;21526;-86
2022/02/09 02:06:20;;;;;;;11.12;3.37;;;;;;;0.67;100.00;100643.63;1658362;86;20931;-86
2022/02/09 02:08:49;;;;;;;9.15;3.55;;;;;;;0.67;100.00;100643.63;1658165;86;21034;-85
2022/02/09 02:18:54;;;;;;;9.28;3.50;;;;;;;0.66;100.00;100652.09;1658232;86;21022;-86
2022/02/09 02:24:04;;;;;;;8.80;3.35;;;;;;;0.65;100.00;100643.84;1777164;80;21392;-86
2022/02/09 02:26:26;;;;;;;9.95;3.62;;;;;;;0.65;100.00;100646.48;1773684;80;21047;-86
2022/02/09 02:29:14;;;;;;;8.40;3.05;;;;;;;0.66;100.00;100642.00;1772997;80;21026;-86
2022/02/09 02:31:36;;;;;;;5.42;1.98;;;;;;;0.65;100.00;100636.39;1689734;84;21588;-86
2022/02/09 03:11:18;;;;;;;4.60;1.80;;;;;;;0.50;100.00;100655.05;1633576;87;22246;-85
2022/02/09 03:13:37;;;;;;;7.17;2.00;;;;;;;0.48;100.00;100645.65;1633433;87;21030;-86
2022/02/09 03:16:09;;;;;;;3.87;1.70;;;;;;;0.45;100.00;100647.66;1633572;87;20994;-85
2022/02/09 03:42:44;;;;;;;5.22;1.80;;;;;;;0.36;100.00;100643.52;1690194;84;21562;-86
2022/02/09 03:55:25;;;;;;;4.33;1.90;;;;;;;0.33;100.00;100643.90;1596201;89;21138;-86
2022/02/09 03:57:47;;;;;;;5.25;2.00;;;;;;;0.34;100.00;100652.66;1566911;91;21106;-86
2022/02/09 04:00:17;;;;;;;4.50;1.72;;;;;;;0.36;100.00;100654.11;1598250;89;21046;-86
2022/02/09 04:02:54;;;;;;;6.03;2.10;;;;;;;0.37;100.00;100650.44;1600247;89;21094;-86
2022/02/09 04:05:21;;;;;;;4.58;2.10;;;;;;;0.39;100.00;100643.13;1573928;91;21130;-86
2022/02/09 04:07:47;;;;;;;6.33;2.25;;;;;;;0.40;100.00;100652.70;1587026;89;21142;-86
2022/02/09 04:10:20;;;;;;;8.60;2.08;;;;;;;0.40;100.00;100641.30;1600135;89;21199;-86
2022/02/09 04:12:52;;;;;;;6.60;2.42;;;;;;;0.41;100.00;100642.92;1570550;91;21038;-87
2022/02/09 04:17:59;;;;;;;7.78;2.10;;;;;;;0.44;100.00;100647.36;1600369;89;21106;-86
2022/02/09 04:38:58;;;;;;;5.78;2.50;;;;;;;0.40;100.00;100679.73;1603882;89;21280;-86
2022/02/09 04:47:06;;;;;;;9.18;2.92;;;;;;;0.03;100.00;100676.82;1637135;85;21435;-88
2022/02/09 04:54:45;;;;;;;5.45;2.37;;;;;;;-0.22;100.00;100677.19;1661097;84;21089;-87
2022/02/09 04:57:07;;;;;;;6.15;2.60;;;;;;;-0.27;100.00;100680.89;1652443;85;21193;-88
2022/02/09 04:59:41;;;;;;;5.72;2.60;;;;;;;-0.34;100.00;100674.20;1656256;86;21106;-88
2022/02/09 05:02:34;;;;;;;5.55;2.12;;;;;;;-0.37;100.00;100678.55;1659629;86;20982;-88
2022/02/09 05:26:23;;;;;;;5.55;2.40;;;;;;;-0.52;100.00;100689.16;1674739;84;22019;-87
2022/02/09 05:28:47;;;;;;;10.90;3.17;;;;;;;-0.40;100.00;100688.19;1702661;80;20908;-87
2022/02/09 05:31:13;;;;;;;8.05;2.70;;;;;;;-0.24;100.00;100693.75;1782047;80;20983;-87
2022/02/09 05:33:39;;;;;;;7.12;2.83;;;;;;;-0.17;100.00;100697.83;1782374;80;21042;-87
2022/02/09 05:36:07;;;;;;;6.70;2.77;;;;;;;-0.10;100.00;100703.49;1782610;80;21026;-87
2022/02/09 05:38:32;;;;;;;7.58;2.35;;;;;;;0.02;100.00;100707.80;1782230;80;21041;-87
2022/02/09 05:40:59;;;;;;;4.42;2.15;;;;;;;0.12;100.00;100698.20;1778453;80;22372;-87
2022/02/09 05:43:26;;;;;;;4.95;2.30;;;;;;;0.23;100.00;100697.71;1768359;80;21039;-87
2022/02/09 05:59:05;;;;;;;6.35;2.98;;;;;;;0.61;100.00;100713.34;1703278;83;21053;-89
2022/02/09 06:01:20;;;;;;;7.80;2.98;;;;;;;0.75;100.00;100742.13;1704524;83;21054;-87
2022/02/09 06:03:46;;;;;;;8.43;3.25;;;;;;;0.79;100.00;100743.38;1703586;83;21014;-87
2022/02/09 06:06:13;;;;;;;7.25;2.95;;;;;;;0.94;100.00;100729.51;1665914;83;20969;-86
2022/02/09 06:08:40;;;;;;;11.97;4.30;;;;;;;1.12;100.00;100725.06;1686830;83;21041;-87
2022/02/09 06:11:22;;;;;;;11.35;4.10;;;;;;;1.35;100.00;100725.62;1663861;85;21196;-87
2022/02/09 06:13:54;;;;;;;11.75;4.15;;;;;;;1.62;100.00;100726.23;1648912;85;21129;-86
2022/02/09 06:19:40;;;;;;;11.73;3.90;;;;;;;1.86;100.00;100727.58;1644968;86;21155;-86
2022/02/09 06:21:23;;;;;;;10.25;3.83;;;;;;;2.37;100.00;100721.25;1642821;86;21037;-87
2022/02/09 06:23:50;;;;;;;11.18;3.75;;;;;;;2.58;100.00;100735.39;1645317;85;21013;-87
2022/02/09 06:26:16;;;;;;;13.05;5.10;;;;;;;2.59;100.00;100736.53;1615336;86;21517;-88
2022/02/09 06:28:42;;;;;;;14.98;5.83;;;;;;;2.57;100.00;100727.11;1692134;83;21601;-87
2022/02/09 06:31:08;;;;;;;16.80;5.22;;;;;;;2.58;100.00;100723.42;1705446;83;21677;-88
2022/02/09 06:33:34;;;;;;;17.23;6.05;;;;;;;2.65;100.00;100733.05;1685659;83;21194;-87
2022/02/09 06:36:03;;;;;;;19.23;5.40;;;;;;;2.70;100.00;100740.41;1694611;83;21046;-87
2022/02/09 06:38:29;;;;;;;15.03;4.33;;;;;;;2.78;100.00;100746.05;1693238;82;21034;-87
2022/02/09 06:40:56;;;;;;;13.85;4.58;;;;;;;2.81;100.00;100735.80;1699316;83;21082;-87
2022/02/09 06:43:32;;;;;;;13.85;4.25;;;;;;;2.86;100.00;100728.03;1684819;83;21182;-86
2022/02/09 06:45:58;;;;;;;13.30;4.70;;;;;;;2.85;100.00;100712.25;1697290;83;21100;-88
2022/02/09 06:48:24;;;;;;;13.13;4.00;;;;;;;2.90;100.00;100733.23;1697262;83;21061;-87
2022/02/09 06:50:55;;;;;;;13.72;4.83;;;;;;;2.92;100.00;100739.19;1697254;83;21085;-87
2022/02/09 06:56:03;;;;;;;13.93;4.60;;;;;;;3.03;100.00;100738.23;1708049;83;21173;-87
2022/02/09 06:58:57;;;;;;;13.28;4.75;;;;;;;3.27;100.00;100737.61;1716600;81;21084;-88
2022/02/09 07:01:13;;;;;;;10.53;4.37;;;;;;;3.49;100.00;100739.48;1708628;83;28984;-88
2022/02/09 07:03:39;;;;;;;13.60;4.60;;;;;;;3.95;100.00;100741.70;1707174;83;21004;-88
2022/02/09 07:06:06;;;;;;;14.85;5.42;;;;;;;4.82;100.00;100742.75;1708209;83;21069;-89
2022/02/09 07:08:34;;;;;;;18.35;5.00;;;;;;;6.08;100.00;100738.76;1756208;80;21119;-86
2022/02/09 07:11:01;;;;;;;14.33;5.83;;;;;;;9.31;100.00;100740.30;1735878;80;47724;-86
2022/02/09 07:13:29;;;;;;;12.10;6.35;;;;;;;12.45;100.00;100739.80;1766807;80;20930;-85
2022/02/09 07:16:03;;;;;;;12.30;6.20;;;;;;;14.81;100.00;100745.25;1758054;80;21041;-85
2022/02/09 07:18:25;;;;;;;12.20;5.80;;;;;;;16.62;100.00;100748.53;1758332;80;21065;-85
2022/02/09 07:23:43;;;;;;;9.98;5.25;;;;;;;19.38;76.41;100748.67;1781397;79;21061;-85
2022/02/09 07:26:19;;;;;;;7.62;4.75;;;;;;;20.58;69.39;100750.64;1794924;79;21041;-86
2022/02/09 07:28:43;;;;;;;7.67;4.55;;;;;;;21.65;59.96;100753.84;1777083;79;21530;-85
2022/02/09 07:31:11;;;;;;;8.25;4.60;;;;;;;22.22;53.32;100758.02;1769134;80;21053;-85
2022/02/09 07:33:41;;;;;;;7.28;3.95;;;;;;;22.84;48.18;100756.34;1765890;78;21073;-85
2022/02/09 07:36:09;;;;;;;8.23;3.92;;;;;;;22.82;44.20;100752.55;1697644;82;21094;-85
2022/02/09 07:38:36;;;;;;;6.62;3.72;;;;;;;22.50;41.60;100758.30;1707316;84;21109;-85
2022/02/09 07:41:05;;;;;;;5.70;2.92;;;;;;;22.80;41.53;100756.23;1706401;84;20983;-85
2022/02/09 07:43:41;;;;;;;6.17;3.85;;;;;;;23.12;40.71;100757.38;1706865;82;21019;-85
2022/02/09 07:46:30;;;;;;;5.70;3.17;;;;;;;23.96;38.35;100752.83;1703158;82;21154;-86
2022/02/09 07:53:57;;;;;;;8.35;2.20;;;;;;;24.99;34.57;100752.82;1699448;82;21086;-87
2022/02/09 07:56:17;;;;;;;7.08;2.80;;;;;;;25.38;34.72;100758.01;1720093;81;21028;-86
2022/02/09 07:59:02;;;;;;;5.67;3.10;;;;;;;25.95;32.05;100761.34;1723827;81;21922;-85
2022/02/09 08:01:28;;;;;;;5.75;2.75;;;;;;;25.19;30.71;100760.66;1772299;79;21110;-86
2022/02/09 08:03:55;;;;;;;8.00;3.08;;;;;;;24.87;31.19;100762.55;1793507;79;20996;-85
2022/02/09 08:06:24;;;;;;;6.53;2.92;;;;;;;24.85;30.69;100767.02;1794403;79;21031;-86
2022/02/09 08:08:58;;;;;;;6.85;3.42;;;;;;;25.08;29.46;100762.31;1798699;78;21074;-86
2022/02/09 08:11:30;;;;;;;6.05;3.42;;;;;;;25.60;31.25;100762.66;1797039;79;20991;-84
2022/02/09 08:28:34;;;;;;;2.80;1.90;;;;;;;21.78;29.07;100777.47;1761130;80;21107;-86
2022/02/09 08:33:19;;;;;;;5.62;2.37;;;;;;;20.27;29.39;100783.06;1745793;80;21603;-86
2022/02/09 08:35:49;;;;;;;6.28;2.65;;;;;;;19.36;30.06;100789.20;1752690;80;21054;-86
2022/02/09 08:38:16;;;;;;;7.55;2.72;;;;;;;18.47;31.10;100790.79;1752118;80;21568;-87
2022/02/09 08:40:44;;;;;;;6.28;2.85;;;;;;;17.70;31.27;100791.02;1748608;81;21059;-88
2022/02/09 08:43:11;;;;;;;5.05;2.83;;;;;;;17.43;32.18;100791.81;1712908;82;21094;-87
2022/02/09 08:45:38;;;;;;;5.28;2.72;;;;;;;17.58;31.82;100792.08;1737342;82;21513;-88
2022/02/09 08:48:06;;;;;;;5.45;2.30;;;;;;;17.78;32.76;100793.08;1740284;80;21094;-87
2022/02/09 08:50:32;;;;;;;4.70;2.33;;;;;;;18.79;32.90;100784.33;1749804;81;21178;-88
2022/02/09 08:52:58;;;;;;;4.10;2.27;;;;;;;18.69;31.58;100792.19;1769724;80;21053;-87
2022/02/09 08:55:25;;;;;;;5.15;2.45;;;;;;;17.33;31.95;100784.64;1785206;80;21005;-88
2022/02/09 08:57:54;;;;;;;4.17;1.98;;;;;;;16.18;32.58;100782.87;1781403;78;21066;-87
2022/02/09 09:00:25;;;;;;;5.83;2.17;;;;;;;14.96;33.47;100787.97;1769875;80;21563;-88
2022/02/09 09:03:03;;;;;;;5.70;2.52;;;;;;;13.58;33.80;100794.11;1775636;80;21060;-89
2022/02/09 09:05:23;;;;;;;6.65;2.67;;;;;;;12.25;35.13;100788.66;1765117;80;20978;-90
2022/02/09 09:08:18;;;;;;;7.97;2.65;;;;;;;11.34;36.87;100788.48;1754656;80;21533;-90
2022/02/09 09:10:39;;;;;;;4.37;2.08;;;;;;;10.86;38.06;100791.63;1706807;82;21062;-90
2022/02/09 10:01:38;;;;;;;4.05;2.10;;;;;;;5.84;52.78;100775.77;1672544;85;21129;-91
2022/02/09 10:33:05;;;;;;;8.13;1.83;;;;;;;5.37;62.58;100751.41;1564193;90;21114;-90
2022/02/09 10:38:28;;;;;;;7.22;2.55;;;;;;;5.41;62.77;100760.11;1550216;92;21026;-91
2022/02/09 10:40:53;;;;;;;9.38;2.33;;;;;;;5.51;65.31;100768.94;1529089;92;21177;-90
2022/02/09 10:44:07;;;;;;;8.25;2.50;;;;;;;5.57;64.17;100767.23;1532231;92;21501;-90
2022/02/09 10:46:52;;;;;;;6.17;2.12;;;;;;;5.64;66.42;100766.11;1479792;96;21195;-91
2022/02/09 10:49:20;;;;;;;11.43;3.22;;;;;;;5.71;64.80;100771.41;1425096;100;21104;-88
2022/02/09 10:52:02;;;;;;;14.58;5.30;;;;;;;5.65;65.38;100774.97;1449991;97;21209;-90
2022/02/09 10:54:24;;;;;;;8.75;3.22;;;;;;;5.54;65.49;100782.39;1468171;97;21158;-90
2022/02/09 10:56:55;;;;;;;10.78;3.98;;;;;;;5.56;67.50;100775.78;1484343;95;21841;-88
2022/02/09 10:59:26;;;;;;;9.13;3.72;;;;;;;5.59;66.64;100784.70;1490786;95;21124;-89
2022/02/09 11:01:54;;;;;;;12.82;4.35;;;;;;;5.60;70.38;100785.50;1486062;94;21123;-84
2022/02/09 11:04:21;;;;;;;11.28;4.17;;;;;;;5.68;70.70;100785.22;1489763;94;21159;-88
2022/02/09 11:06:49;;;;;;;10.72;3.22;;;;;;;5.81;70.64;100786.39;1481023;95;21645;-89
2022/02/09 11:09:19;;;;;;;10.03;4.12;;;;;;;5.86;69.49;100790.55;1480557;95;21091;-90
2022/02/09 11:11:47;;;;;;;8.50;3.50;;;;;;;5.92;68.55;100787.52;1476982;95;21107;-89
2022/02/09 11:14:21;;;;;;;9.00;3.75;;;;;;;5.88;69.29;100792.50;1474168;96;21539;-89
2022/02/09 11:16:58;;;;;;;12.05;4.08;;;;;;;5.90;71.61;100795.75;1442787;98;21214;-89
2022/02/09 11:28:39;;;;;;;22.32;8.10;;;;;;;5.88;70.88;100813.05;1313937;108;21209;-88
2022/02/09 11:34:07;;;;;;;15.20;6.33;;;;;;;5.92;75.36;100807.05;1275229;109;21393;-88
2022/02/09 11:41:59;;;;;;;19.40;7.55;;;;;;;5.90;77.58;100813.13;1245306;115;21246;-87
2022/02/09 11:44:56;;;;;;;21.82;6.97;;;;;;;5.88;77.67;100810.37;1246064;113;21617;-88
2022/02/09 12:00:50;;;;;;;23.70;8.30;;;;;;;5.42;89.64;100831.74;1242622;113;21332;-89
2022/02/09 12:11:58;;;;;;;20.65;7.67;;;;;;;5.34;97.84;100840.03;1262477;112;21519;-89
2022/02/09 12:17:52;;;;;;;47.48;16.37;;;;;;;5.23;99.60;100845.06;1262119;112;21722;-88
2022/02/09 12:20:35;;;;;;;51.90;16.97;;;;;;;5.18;100.00;100844.89;1379523;103;21048;-88
2022/02/09 12:25:48;;;;;;;32.05;10.45;;;;;;;5.13;100.00;100854.59;1492906;96;21086;-88
2022/02/09 12:28:29;;;;;;;29.98;9.65;;;;;;;5.15;100.00;100853.86;1493056;96;21126;-89
2022/02/09 12:31:15;;;;;;;19.87;8.15;;;;;;;5.12;100.00;100856.45;1500500;93;21643;-88
2022/02/09 12:33:47;;;;;;;18.85;7.62;;;;;;;5.13;100.00;100865.28;1544241;92;21118;-88
2022/02/09 12:36:21;;;;;;;25.70;8.73;;;;;;;5.18;100.00;100866.27;1585407;88;21096;-88
2022/02/09 12:38:49;;;;;;;17.27;6.97;;;;;;;5.19;100.00;100871.08;1558364;90;21680;-89
2022/02/09 12:41:22;;;;;;;22.52;8.15;;;;;;;5.15;100.00;100876.58;1558338;90;21059;-88
2022/02/09 12:43:56;;;;;;;20.75;7.05;;;;;;;5.08;100.00;100870.44;1558565;90;21897;-88
2022/02/09 12:46:28;;;;;;;20.77;7.90;;;;;;;5.07;100.00;100872.30;1475499;95;21098;-88
2022/02/09 12:48:56;;;;;;;18.30;7.40;;;;;;;5.08;100.00;100878.45;1493575;94;21167;-88
2022/02/09 12:51:28;;;;;;;17.12;7.45;;;;;;;5.09;100.00;100872.91;1518274;93;21109;-87
2022/02/09 12:53:57;;;;;;;25.53;9.43;;;;;;;5.17;100.00;100877.97;1536309;92;21165;-88
2022/02/09 12:56:31;;;;;;;28.52;9.90;;;;;;;5.19;100.00;100871.08;1550534;92;21927;-88
2022/02/09 12:59:08;;;;;;;24.00;7.50;;;;;;;5.16;100.00;100868.33;1529744;92;21152;-87
2022/02/09 13:01:51;;;;;;;16.62;6.72;;;;;;;5.14;100.00;100868.23;1529728;92;21134;-88
2022/02/09 13:04:39;;;;;;;21.00;7.65;;;;;;;5.17;100.00;100875.29;1513208;93;21478;-87
2022/02/09 13:07:15;;;;;;;15.95;6.62;;;;;;;5.15;100.00;100881.39;1504296;93;21223;-88
2022/02/09 13:09:49;;;;;;;22.05;7.55;;;;;;;5.11;100.00;100887.37;1529185;92;21138;-89
2022/02/09 13:12:30;;;;;;;16.30;6.90;;;;;;;5.03;100.00;100887.63;1529243;92;21178;-86
2022/02/09 13:15:06;;;;;;;27.80;6.83;;;;;;;4.93;100.00;100894.26;1529206;92;21142;-87
2022/02/09 13:23:44;;;;;;;16.77;6.97;;;;;;;4.76;100.00;100894.46;1450582;98;21099;-85
2022/02/09 14:11:50;;;;;;;55.98;17.48;;;;;;;3.94;100.00;100922.17;1500846;94;21206;-86
2022/02/09 14:35:45;;;;;;;55.15;19.20;;;;;;;3.54;100.00;100941.37;1599200;89;22109;-88
2022/02/09 14:54:30;;;;;;;41.02;12.63;;;;;;;3.29;100.00;100952.59;1741026;80;21058;-87
2022/02/09 14:59:33;;;;;;;33.73;10.25;;;;;;;3.28;100.00;100964.80;1741231;80;21190;-87
2022/02/09 15:04:36;;;;;;;35.40;10.30;;;;;;;3.17;100.00;100969.68;1673492;84;21039;-87
2022/02/09 15:12:14;;;;;;;39.33;10.40;;;;;;;3.12;100.00;100974.00;1683119;83;22579;-87
2022/02/09 15:14:36;;;;;;;37.13;11.18;;;;;;;3.14;100.00;100982.06;1685303;83;21014;-88
2022/02/09 15:20:06;;;;;;;33.78;11.12;;;;;;;3.05;100.00;100978.47;1694158;83;21037;-87
2022/02/09 15:22:10;;;;;;;40.05;12.60;;;;;;;3.01;100.00;100982.56;1694976;83;21080;-88
2022/02/09 15:24:47;;;;;;;38.17;12.43;;;;;;;3.00;100.00;100986.22;1701719;81;21053;-87
2022/02/09 15:27:17;;;;;;;38.08;13.22;;;;;;;2.98;100.00;100991.77;1693333;82;21151;-87
2022/02/09 15:29:45;;;;;;;42.58;13.13;;;;;;;2.98;100.00;101003.74;1700389;83;21620;-88
2022/02/09 15:32:22;;;;;;;38.67;13.95;;;;;;;2.95;100.00;100998.82;1696089;83;21478;-87
2022/02/09 15:34:47;;;;;;;43.00;14.15;;;;;;;2.94;100.00;101001.16;1700226;83;21050;-87
2022/02/09 16:23:04;;;;;;;59.33;19.05;;;;;;;2.80;100.00;101062.84;1625038;86;21086;-87
2022/02/09 16:25:50;;;;;;;69.53;22.37;;;;;;;2.79;100.00;101068.34;1616022;88;21102;-87
2022/02/09 16:38:41;;;;;;;68.50;22.87;;;;;;;2.84;100.00;101082.70;1634752;86;21080;-87
2022/02/09 16:46:25;;;;;;;65.78;20.23;;;;;;;2.84;100.00;101080.05;1608535;85;21145;-86
2022/02/09 16:49:05;;;;;;;56.98;18.77;;;;;;;2.86;100.00;101078.53;1643506;84;21095;-87
2022/02/09 16:51:30;;;;;;;55.90;19.10;;;;;;;2.86;100.00;101082.02;1658081;86;21682;-86
2022/02/09 16:54:11;;;;;;;58.05;20.52;;;;;;;2.86;100.00;101087.84;1641558;86;21196;-87
2022/02/09 17:21:12;;;;;;;52.88;16.70;;;;;;;2.77;100.00;101105.00;1485947;93;21206;-87
2022/02/09 17:23:39;;;;;;;56.20;18.45;;;;;;;2.76;100.00;101104.66;1434547;95;21682;-87
2022/02/09 17:26:09;;;;;;;50.33;17.60;;;;;;;2.80;100.00;101109.93;1480449;95;21646;-86
2022/02/09 17:28:35;;;;;;;58.35;18.17;;;;;;;2.81;100.00;101111.56;1471840;95;21469;-86
2022/02/09 17:57:41;;;;;;;59.65;18.70;;;;;;;2.89;100.00;101120.21;1556490;92;21086;-89
2022/02/09 18:00:13;;;;;;;43.45;16.30;;;;;;;2.89;100.00;101126.05;1536981;91;20954;-88
2022/02/09 18:02:35;;;;;;;59.98;21.80;;;;;;;2.88;100.00;101121.72;1503034;93;21570;-89
2022/02/09 18:05:08;;;;;;;45.10;17.87;;;;;;;2.86;100.00;101133.09;1507298;93;21040;-89
2022/02/09 18:07:34;;;;;;;52.17;17.27;;;;;;;2.85;100.00;101132.25;1503526;93;21128;-88
2022/02/09 18:10:09;;;;;;;44.53;15.68;;;;;;;2.85;100.00;101133.58;1522027;90;21141;-88
2022/02/09 18:12:48;;;;;;;49.93;18.42;;;;;;;2.86;100.00;101135.76;1559242;90;21161;-89
2022/02/09 18:31:15;;;;;;;56.28;21.68;;;;;;;2.83;100.00;101150.79;1501879;93;21129;-88
2022/02/09 18:44:21;;;;;;;52.60;17.80;;;;;;;2.89;100.00;101165.98;1538186;90;21273;-89
2022/02/09 19:00:10;;;;;;;42.40;15.00;;;;;;;2.94;100.00;101180.34;1570338;88;21138;-89
2022/02/09 19:05:16;;;;;;;37.25;13.35;;;;;;;2.97;100.00;101183.10;1552696;91;21890;-88
2022/02/09 19:07:56;;;;;;;39.23;13.88;;;;;;;2.95;100.00;101181.98;1543903;92;21147;-89
2022/02/09 19:27:10;;;;;;;30.37;10.90;;;;;;;2.90;100.00;101196.89;1399654;99;21264;-88
2022/02/09 19:48:13;;;;;;;23.83;10.18;;;;;;;2.79;100.00;101212.05;1438320;98;21260;-86
2022/02/09 19:50:53;;;;;;;23.75;9.43;;;;;;;2.78;100.00;101209.91;1435102;98;21138;-87
2022/02/09 19:58:30;;;;;;;29.30;11.30;;;;;;;2.64;100.00;101199.66;1485789;92;22152;-86
2022/02/09 20:00:56;;;;;;;29.18;10.20;;;;;;;2.72;100.00;101217.33;1525757;92;21245;-86
2022/02/09 20:03:18;;;;;;;26.97;9.45;;;;;;;2.72;100.00;101219.99;1542966;92;21588;-85
2022/02/09 20:05:44;;;;;;;27.80;8.25;;;;;;;2.70;100.00;101222.83;1546369;92;20949;-86
2022/02/09 20:08:10;;;;;;;19.80;7.67;;;;;;;2.71;100.00;101225.83;1546365;92;21129;-86
2022/02/09 20:10:36;;;;;;;24.18;8.60;;;;;;;2.73;100.00;101230.94;1546399;91;20984;-86
2022/02/09 20:13:02;;;;;;;22.70;9.75;;;;;;;2.75;100.00;101228.92;1526757;92;21901;-86
2022/02/09 20:15:29;;;;;;;22.93;8.40;;;;;;;2.78;100.00;101235.70;1631241;86;21002;-86
2022/02/09 20:17:56;;;;;;;21.90;7.72;;;;;;;2.76;100.00;101234.55;1662641;86;21077;-86
2022/02/09 20:20:25;;;;;;;21.95;7.95;;;;;;;2.77;100.00;101242.05;1662989;86;21423;-87
2022/02/09 20:22:51;;;;;;;18.70;7.47;;;;;;;2.76;100.00;101239.88;1662708;86;21009;-86
2022/02/09 20:25:19;;;;;;;19.77;7.90;;;;;;;2.77;100.00;101243.38;1663011;86;21900;-86
2022/02/09 20:27:46;;;;;;;23.20;7.62;;;;;;;2.78;100.00;101241.03;1662756;86;21077;-86
2022/02/09 20:30:16;;;;;;;24.25;9.93;;;;;;;2.77;100.00;101245.53;1662638;86;21705;-86
2022/02/09 20:32:47;;;;;;;25.72;9.00;;;;;;;2.76;100.00;101237.21;1662417;86;21100;-85
2022/02/09 20:35:11;;;;;;;21.42;9.20;;;;;;;2.77;100.00;101254.84;1662767;86;21582;-86
2022/02/09 20:37:42;;;;;;;23.02;10.18;;;;;;;2.75;100.00;101250.22;1662301;86;21679;-86
2022/02/09 20:40:13;;;;;;;20.27;7.85;;;;;;;2.73;100.00;101246.39;1659380;86;21044;-86
2022/02/09 20:42:37;;;;;;;19.48;7.60;;;;;;;2.76;100.00;101251.03;1659122;86;21104;-86
2022/02/09 20:45:24;;;;;;;16.32;7.12;;;;;;;2.71;100.00;101244.45;1662355;86;21614;-86
2022/02/09 20:47:47;;;;;;;22.87;7.15;;;;;;;2.72;100.00;101242.61;1662446;86;21045;-87
2022/02/09 20:50:13;;;;;;;18.37;6.72;;;;;;;2.71;100.00;101243.13;1651906;86;21417;-86
2022/02/09 20:52:39;;;;;;;14.58;6.00;;;;;;;2.70;100.00;101242.80;1628793;88;21188;-86
2022/02/09 20:55:06;;;;;;;19.20;7.55;;;;;;;2.71;100.00;101246.30;1733168;82;22244;-86
2022/02/09 20:57:33;;;;;;;16.20;6.65;;;;;;;2.71;100.00;101249.78;1751149;82;21507;-86
2022/02/09 21:00:07;;;;;;;16.42;6.22;;;;;;;2.71;100.00;101254.28;1750924;82;20983;-86
2022/02/09 21:12:58;;;;;;;15.20;6.03;;;;;;;2.68;100.00;101264.80;1642497;87;21561;-87
2022/02/09 21:15:40;;;;;;;21.60;6.47;;;;;;;2.68;100.00;101274.11;1642529;87;22376;-86
2022/02/09 21:20:52;;;;;;;12.47;4.75;;;;;;;2.68;100.00;101282.09;1642448;87;21078;-86
2022/02/09 21:26:04;;;;;;;15.35;4.78;;;;;;;2.67;100.00;101281.76;1643019;87;20926;-86
2022/02/09 21:42:13;;;;;;;12.93;4.97;;;;;;;2.68;100.00;101295.91;1610327;89;21533;-86
2022/02/09 21:54:57;;;;;;;16.50;5.67;;;;;;;2.60;100.00;101300.84;1557397;92;21313;-86
2022/02/09 21:57:39;;;;;;;18.82;5.75;;;;;;;2.59;100.00;101301.87;1557317;92;21041;-87
2022/02/09 22:16:25;;;;;;;21.20;7.42;;;;;;;2.60;100.00;101318.65;1562936;91;21104;-86
2022/02/09 22:29:57;;;;;;;24.52;7.90;;;;;;;2.59;100.00;101329.80;1629179;87;21047;-86
2022/02/09 22:45:40;;;;;;;22.75;7.25;;;;;;;2.52;100.00;101325.41;1608752;89;21096;-86
2022/02/09 22:48:26;;;;;;;21.75;6.47;;;;;;;2.50;100.00;101326.95;1603718;88;21083;-87
2022/02/09 22:50:56;;;;;;;23.18;6.72;;;;;;;2.49;100.00;101331.42;1601357;88;21297;-86
2022/02/09 22:55:59;;;;;;;14.68;5.30;;;;;;;2.49;100.00;101327.94;1602085;88;21068;-86
2022/02/09 22:58:24;;;;;;;15.15;5.80;;;;;;;2.48;100.00;101334.28;1602169;88;20953;-86
2022/02/09 23:01:05;;;;;;;21.15;5.92;;;;;;;2.44;100.00;101331.18;1617988;86;20965;-85
2022/02/09 23:03:38;;;;;;;11.30;4.45;;;;;;;2.42;100.00;101336.36;1659973;86;21053;-87
2022/02/09 23:14:27;;;;;;;13.40;4.65;;;;;;;2.35;100.00;101344.76;1752860;80;21070;-87
2022/02/09 23:54:53;;;;;;;11.60;3.92;;;;;;;2.20;100.00;101356.75;1664640;86;21545;-87
